Domov               UVHVVR             MKGP            O straneh              
ZDRAVSTVENO VARSTVO RASTLIN
  MREŽA AGROMET. POSTAJ
 ► PROGNOSTIČNA OBVESTILA
AGROMETEOROLOŠKI PODATKI -
ARSO
OBVLADOVANJE TVEGANJ ZARADI
NEUGODNIH VREMENSKIH RAZMER
  ► NARAVNE NESREČE
  ► SUŠA/MOČA
  ► NAMAKANJE
  ► ŽLED (gozdarstvo)
KARTOGRAFSKI PRIKAZI
SPLETNE POVEZAVE
PROJEKTI IN PUBLIKACIJE

AGROMETEOROLOŠKA MREŽA: VREMENSKE POSTAJE IN FENOLOŠKA OPAZOVANJA

Pregled podatkov za lokacijo Lendava, meteorološka postaja 42840

Pregled senzorjev na lokaciji

ID Ime Zadnja
vrednost
Datum
zadnje
spremembe
Tip
senzorja
2103 Omočenost lista (U) 3 U 15.12.2017 20:00 A730WET
2104 Temperatura 2 m (°C) 3,07 °C 15.12.2017 20:00 50YA
2105 Relativna vlaga 2 m (% RH) 94,82 % RH 15.12.2017 20:00 50YA
2106 Padavine (mm) 0,6 mm 15.12.2017 20:00 Rain-O-Matic

Pregled podatkov zadnjih 24 ur

Zap.
št.
Datum in čas Lendava
Omočenost
lista
Padavine Relativna
vlaga
2
m
Temperatura
2
m
0 15.12.2017 20:00 3 0,6 94,82 3,07
1 15.12.2017 19:30 3 0,6 94,43 3,36
2 15.12.2017 19:00 2 0,6 95,53 3,5
3 15.12.2017 18:30 2 0,6 96,01 3,74
4 15.12.2017 18:00 2 0,6 96,47 3,92
5 15.12.2017 17:30 2 0,8 97,07 3,99
6 15.12.2017 17:00 2 0,8 97,14 4,14
7 15.12.2017 16:30 3 0,6 97,48 4,6
8 15.12.2017 16:00 4 0,6 97,95 4,68
9 15.12.2017 15:30 5 0 97,44 4,6
10 15.12.2017 15:00 3 0,2 96,36 4,7
11 15.12.2017 14:30 3 0,4 94,99 4,78
12 15.12.2017 14:00 3 0,8 93,57 4,78
13 15.12.2017 13:30 5 0,2 93,94 5,18
14 15.12.2017 13:00 5 0,6 94,35 5,88
15 15.12.2017 12:30 3 0 87,48 7,04
16 15.12.2017 12:00 0 0 77,92 9,93
17 15.12.2017 11:30 0 0 70,89 11,22
18 15.12.2017 11:00 0 0 70,07 10,93
19 15.12.2017 10:30 0 0 71,67 10,26
20 15.12.2017 10:00 0 0 71,62 10,11
21 15.12.2017 09:30 0 0 72,21 9,89
22 15.12.2017 09:00 0 0 73,07 9,64
23 15.12.2017 08:30 0 0 72,75 9,7
24 15.12.2017 08:00 0 0 73,79 9,52
25 15.12.2017 07:30 0 0 74,68 9,34
26 15.12.2017 07:00 0 0 75,61 9,23
27 15.12.2017 06:30 0 0 76,42 9,02
28 15.12.2017 06:00 0 0 77,87 8,91
29 15.12.2017 05:30 0 0 77,28 9,23
30 15.12.2017 05:00 0 0 82,67 8,35
31 15.12.2017 04:30 0 0 83,92 8,2
32 15.12.2017 04:00 0 0 86,67 7,81
33 15.12.2017 03:30 1 0 93,52 6,93
34 15.12.2017 03:00 0 0 93,98 6,91
35 15.12.2017 02:30 0 0 94,54 6,65
36 15.12.2017 02:00 0 0 95,35 6,16
37 15.12.2017 01:30 1 0 97,31 5,86
38 15.12.2017 01:00 1 0 98,7 5,61
39 15.12.2017 00:30 1 0 99,18 5,45
40 15.12.2017 00:00 8 0,2 99,1 5,18
41 14.12.2017 23:30 5 0 98,42 5,19
42 14.12.2017 23:00 4 0 96,3 5,18
43 14.12.2017 22:30 1 0 93,05 5,74
44 14.12.2017 22:00 3 0 94,16 5,83
45 14.12.2017 21:30 2 0 95,48 6,18
46 14.12.2017 21:00 2 0 99,25 5,6
© 2011 Ministrstvo za kmetijstvo, gozdarstvo in prehrano. Vse pravice pridržane.